createdAt,value
2022-08-27T00:01:58.133Z,101364.34
2022-08-27T00:04:55.093Z,101358.59
2022-08-27T00:07:52.036Z,101357.94
2022-08-27T00:10:48.995Z,101358.75
2022-08-27T00:13:46.075Z,101357.53
2022-08-27T00:16:43.262Z,101359.59
2022-08-27T00:19:41.068Z,101353.50
2022-08-27T00:22:38.114Z,101350.19
2022-08-27T00:25:35.199Z,101353.44
2022-08-27T00:28:33.428Z,101357.97
2022-08-27T00:31:30.931Z,101347.38
2022-08-27T00:34:27.940Z,101344.09
2022-08-27T00:37:25.942Z,101343.66
2022-08-27T00:40:23.419Z,101344.00
2022-08-27T00:43:25.144Z,101349.41
2022-08-27T00:46:25.655Z,101348.56
2022-08-27T00:49:44.455Z,101345.22
2022-08-27T00:52:51.578Z,101352.22
2022-08-27T00:56:21.340Z,101358.75
2022-08-27T00:59:19.467Z,101358.75
2022-08-27T01:02:20.185Z,101350.13
2022-08-27T01:05:19.268Z,101362.00
2022-08-27T01:08:21.735Z,101353.00
2022-08-27T01:11:18.899Z,101364.00
2022-08-27T01:14:16.208Z,101360.31
2022-08-27T01:17:15.047Z,101363.22
2022-08-27T01:20:17.680Z,101352.97
2022-08-27T01:23:27.589Z,101351.38
2022-08-27T01:26:25.252Z,101349.03
2022-08-27T01:29:21.658Z,101352.78
2022-08-27T01:32:23.346Z,101351.59
2022-08-27T01:35:21.475Z,101357.31
2022-08-27T01:38:30.699Z,101356.91
2022-08-27T01:41:28.888Z,101365.09
2022-08-27T01:44:25.968Z,101365.91
2022-08-27T01:47:23.947Z,101368.34
2022-08-27T01:50:32.739Z,101364.69
2022-08-27T01:53:30.469Z,101363.47
2022-08-27T01:56:28.082Z,101355.31
2022-08-27T01:59:25.706Z,101365.13
2022-08-27T02:02:37.165Z,101366.38
2022-08-27T02:05:43.799Z,101372.56
2022-08-27T02:08:42.137Z,101379.94
2022-08-27T02:11:44.797Z,101372.13
2022-08-27T02:14:42.004Z,101367.16
2022-08-27T02:17:39.279Z,101369.16
2022-08-27T02:20:36.263Z,101370.47
2022-08-27T02:23:33.219Z,101361.41
2022-08-27T02:26:30.134Z,101363.88
2022-08-27T02:29:27.422Z,101372.88
2022-08-27T02:32:32.318Z,101370.03
2022-08-27T02:35:31.089Z,101364.69
2022-08-27T02:38:27.982Z,101359.78
2022-08-27T02:41:25.098Z,101361.41
2022-08-27T02:44:22.416Z,101357.75
2022-08-27T02:47:19.957Z,101355.69
2022-08-27T02:50:17.557Z,101366.38
2022-08-27T02:53:14.859Z,101356.94
2022-08-27T02:56:13.159Z,101363.09
2022-08-27T02:59:15.102Z,101361.47
2022-08-27T03:02:12.527Z,101362.69
2022-08-27T03:05:11.432Z,101362.28
2022-08-27T03:08:09.537Z,101360.25
2022-08-27T03:11:09.904Z,101360.63
2022-08-27T03:14:09.101Z,101358.50
2022-08-27T03:17:25.052Z,101349.91
2022-08-27T03:20:22.567Z,101343.41
2022-08-27T03:23:22.584Z,101348.31
2022-08-27T03:26:20.304Z,101348.34
2022-08-27T03:29:16.943Z,101350.00
2022-08-27T03:32:14.101Z,101349.19
2022-08-27T03:35:11.777Z,101350.00
2022-08-27T03:38:10.224Z,101345.88
2022-08-27T03:41:07.205Z,101347.91
2022-08-27T03:44:04.199Z,101340.97
2022-08-27T03:47:01.505Z,101340.53
2022-08-27T03:50:00.793Z,101337.66
2022-08-27T03:52:58.443Z,101335.19
2022-08-27T03:55:55.109Z,101345.88
2022-08-27T03:58:52.297Z,101340.97
2022-08-27T04:01:49.026Z,101336.88
2022-08-27T04:04:45.980Z,101337.72
2022-08-27T04:07:43.250Z,101338.13
2022-08-27T04:10:41.077Z,101346.31
2022-08-27T04:13:38.187Z,101346.34
2022-08-27T04:16:35.775Z,101342.69
2022-08-27T04:19:33.683Z,101339.41
2022-08-27T04:22:31.022Z,101335.72
2022-08-27T04:25:28.550Z,101339.41
2022-08-27T04:28:26.475Z,101352.50
2022-08-27T04:31:24.144Z,101345.56
2022-08-27T04:34:21.176Z,101348.44
2022-08-27T04:37:21.471Z,101361.13
2022-08-27T04:40:20.309Z,101364.41
2022-08-27T04:43:17.769Z,101349.25
2022-08-27T04:46:22.704Z,101356.22
2022-08-27T04:49:20.232Z,101368.53
2022-08-27T04:52:17.099Z,101369.72
2022-08-27T04:55:14.173Z,101366.47
2022-08-27T04:58:11.393Z,101370.56
2022-08-27T05:01:09.200Z,101366.47
2022-08-27T05:04:06.483Z,101368.94
2022-08-27T05:07:04.580Z,101367.28
2022-08-27T05:10:02.463Z,101376.28
2022-08-27T05:13:00.079Z,101374.25
2022-08-27T05:15:59.059Z,101369.34
2022-08-27T05:18:58.357Z,101367.69
2022-08-27T05:21:55.013Z,101380.41
2022-08-27T05:24:52.247Z,101375.50
2022-08-27T05:27:49.140Z,101375.47
2022-08-27T05:30:49.289Z,101377.91
2022-08-27T05:33:52.057Z,101384.50
2022-08-27T05:36:50.035Z,101380.00
2022-08-27T05:39:46.972Z,101388.59
2022-08-27T05:42:49.248Z,101382.03
2022-08-27T05:45:48.783Z,101389.44
2022-08-27T05:48:46.220Z,101383.28
2022-08-27T05:51:43.508Z,101385.72
2022-08-27T05:54:41.284Z,101380.81
2022-08-27T05:57:38.576Z,101378.31
2022-08-27T06:01:02.483Z,101373.81
2022-08-27T06:04:01.530Z,101380.34
2022-08-27T06:06:59.011Z,101378.72
2022-08-27T06:09:58.144Z,101376.66
2022-08-27T06:12:57.592Z,101376.25
2022-08-27T06:16:03.325Z,101372.94
2022-08-27T06:19:04.800Z,101379.53
2022-08-27T06:22:09.766Z,101373.00
2022-08-27T06:25:08.811Z,101379.13
2022-08-27T06:28:06.680Z,101385.28
2022-08-27T06:31:18.701Z,101388.19
2022-08-27T06:34:16.755Z,101381.25
2022-08-27T06:37:14.519Z,101386.91
2022-08-27T06:40:11.816Z,101376.22
2022-08-27T06:43:09.603Z,101374.97
2022-08-27T06:46:09.426Z,101377.81
2022-08-27T06:49:06.596Z,101393.00
2022-08-27T06:52:04.312Z,101397.53
2022-08-27T06:55:03.743Z,101396.72
2022-08-27T06:58:01.887Z,101394.69
2022-08-27T07:00:59.487Z,101397.63
2022-08-27T07:03:58.386Z,101398.41
2022-08-27T07:06:55.178Z,101401.69
2022-08-27T07:09:52.618Z,101404.13
2022-08-27T07:12:50.528Z,101406.16
2022-08-27T07:15:47.598Z,101407.41
2022-08-27T07:18:48.944Z,101411.09
2022-08-27T07:21:46.338Z,101416.84
2022-08-27T07:24:43.303Z,101411.91
2022-08-27T07:27:40.498Z,101418.13
2022-08-27T07:30:38.145Z,101421.78
2022-08-27T07:33:36.391Z,101420.09
2022-08-27T07:36:34.679Z,101419.69
2022-08-27T07:39:32.486Z,101422.13
2022-08-27T07:42:56.270Z,101436.50
2022-08-27T07:45:56.278Z,101436.53
2022-08-27T07:48:55.494Z,101435.72
2022-08-27T07:51:52.611Z,101441.88
2022-08-27T07:54:49.389Z,101439.84
2022-08-27T07:57:48.071Z,101443.94
2022-08-27T08:00:45.511Z,101438.59
2022-08-27T08:03:42.243Z,101440.25
2022-08-27T08:06:39.596Z,101435.34
2022-08-27T08:09:36.647Z,101451.34
2022-08-27T08:12:38.567Z,101445.19
2022-08-27T08:15:35.952Z,101444.34
2022-08-27T08:18:33.404Z,101440.66
2022-08-27T08:21:30.258Z,101441.91
2022-08-27T08:24:27.263Z,101443.94
2022-08-27T08:27:24.508Z,101442.72
2022-08-27T08:30:21.299Z,101440.28
2022-08-27T08:33:18.630Z,101447.22
2022-08-27T08:36:16.073Z,101448.06
2022-08-27T08:39:13.591Z,101446.81
2022-08-27T08:42:39.342Z,101444.75
2022-08-27T08:45:36.901Z,101436.94
2022-08-27T08:48:34.670Z,101444.72
2022-08-27T08:51:36.972Z,101446.31
2022-08-27T08:54:34.627Z,101448.38
2022-08-27T08:57:35.480Z,101447.56
2022-08-27T09:00:32.464Z,101448.84
2022-08-27T09:03:29.339Z,101453.31
2022-08-27T09:06:43.375Z,101448.41
2022-08-27T09:10:03.972Z,101440.22
2022-08-27T09:13:03.714Z,101439.00
2022-08-27T09:16:02.479Z,101446.38
2022-08-27T09:19:02.263Z,101445.56
2022-08-27T09:22:10.375Z,101454.16
2022-08-27T09:25:17.892Z,101445.94
2022-08-27T09:28:44.360Z,101450.00
2022-08-27T09:31:41.974Z,101446.31
2022-08-27T09:34:41.003Z,101445.91
2022-08-27T09:37:46.125Z,101445.06
2022-08-27T09:40:48.317Z,101445.88
2022-08-27T09:43:45.716Z,101437.69
2022-08-27T09:46:52.467Z,101448.81
2022-08-27T09:49:49.380Z,101448.38
2022-08-27T09:52:59.357Z,101449.16
2022-08-27T09:56:01.763Z,101441.81
2022-08-27T09:59:04.829Z,101448.38
2022-08-27T10:02:04.382Z,101452.03
2022-08-27T10:05:13.928Z,101451.97
2022-08-27T10:08:17.643Z,101443.41
2022-08-27T10:11:26.314Z,101440.19
2022-08-27T10:14:39.093Z,101446.63
2022-08-27T10:18:21.458Z,101442.53
2022-08-27T10:21:36.808Z,101454.81
2022-08-27T10:24:57.817Z,101444.97
2022-08-27T10:28:05.144Z,101445.06
2022-08-27T10:31:31.442Z,101454.81
2022-08-27T10:34:46.138Z,101450.34
2022-08-27T10:38:11.873Z,101448.38
2022-08-27T10:41:23.610Z,101450.81
2022-08-27T10:44:31.867Z,101443.34
2022-08-27T10:47:43.068Z,101454.84
2022-08-27T10:50:40.446Z,101444.16
2022-08-27T10:54:15.441Z,101447.84
2022-08-27T10:57:39.938Z,101441.38
2022-08-27T11:00:56.494Z,101447.81
2022-08-27T11:04:18.682Z,101448.25
2022-08-27T11:07:20.830Z,101444.19
2022-08-27T11:10:24.802Z,101448.66
2022-08-27T11:13:38.734Z,101436.88
2022-08-27T11:16:45.418Z,101453.19
2022-08-27T11:19:50.926Z,101450.25
2022-08-27T11:22:57.044Z,101444.91
2022-08-27T11:25:55.730Z,101448.63
2022-08-27T11:29:01.470Z,101457.63
2022-08-27T11:32:04.523Z,101443.28
2022-08-27T11:35:23.094Z,101449.06
2022-08-27T11:38:37.203Z,101436.78
2022-08-27T11:41:56.594Z,101435.59
2022-08-27T11:44:58.045Z,101448.22
2022-08-27T11:47:58.500Z,101445.34
2022-08-27T11:50:56.571Z,101444.94
2022-08-27T11:54:01.967Z,101444.16
2022-08-27T11:56:59.936Z,101455.63
2022-08-27T11:59:57.966Z,101447.38
2022-08-27T12:03:06.339Z,101434.69
2022-08-27T12:06:10.093Z,101460.44
2022-08-27T12:09:20.090Z,101452.59
2022-08-27T12:12:56.479Z,101446.84
2022-08-27T12:16:03.265Z,101445.66
2022-08-27T12:19:31.414Z,101443.53
2022-08-27T12:22:28.542Z,101446.38
2022-08-27T12:25:25.766Z,101449.38
2022-08-27T12:28:26.730Z,101448.09
2022-08-27T12:31:24.658Z,101444.88
2022-08-27T12:34:26.777Z,101454.38
2022-08-27T12:37:27.495Z,101446.22
2022-08-27T12:40:26.523Z,101452.41
2022-08-27T12:43:26.277Z,101456.81
2022-08-27T12:46:23.912Z,101464.06
2022-08-27T12:49:37.888Z,101461.19
2022-08-27T12:52:42.262Z,101467.22
2022-08-27T12:56:01.673Z,101451.13
2022-08-27T12:59:11.603Z,101453.16
2022-08-27T13:02:43.982Z,101453.13
2022-08-27T13:05:47.122Z,101445.84
2022-08-27T13:08:44.742Z,101449.66
2022-08-27T13:11:47.072Z,101452.88
2022-08-27T13:14:44.742Z,101448.69
2022-08-27T13:17:47.037Z,101440.63
2022-08-27T13:20:52.712Z,101448.38
2022-08-27T13:23:57.806Z,101452.47
2022-08-27T13:26:57.327Z,101440.53
2022-08-27T13:29:55.185Z,101447.09
2022-08-27T13:32:53.135Z,101458.09
2022-08-27T13:35:51.065Z,101452.75
2022-08-27T13:38:50.337Z,101449.88
2022-08-27T13:41:47.837Z,101453.16
2022-08-27T13:44:48.170Z,101450.22
2022-08-27T13:47:47.600Z,101450.59
2022-08-27T13:50:50.124Z,101453.94
2022-08-27T13:54:06.774Z,101451.94
2022-08-27T13:57:09.989Z,101445.44
2022-08-27T14:00:15.048Z,101446.19
2022-08-27T14:03:34.639Z,101446.84
2022-08-27T14:06:42.020Z,101456.50
2022-08-27T14:09:47.834Z,101438.91
2022-08-27T14:13:00.336Z,101440.84
2022-08-27T14:15:59.228Z,101435.91
2022-08-27T14:19:09.246Z,101437.31
2022-08-27T14:22:06.664Z,101432.38
2022-08-27T14:25:03.848Z,101432.19
2022-08-27T14:28:00.787Z,101438.19
2022-08-27T14:30:58.568Z,101427.25
2022-08-27T14:33:55.755Z,101433.44
2022-08-27T14:36:54.977Z,101420.41
2022-08-27T14:39:53.102Z,101424.59
2022-08-27T14:42:50.967Z,101432.31
2022-08-27T14:45:48.755Z,101428.59
2022-08-27T14:48:51.571Z,101436.84
2022-08-27T14:51:49.151Z,101436.38
2022-08-27T14:54:47.612Z,101428.88
2022-08-27T14:57:45.606Z,101427.81
2022-08-27T15:00:45.844Z,101434.69
2022-08-27T15:03:49.642Z,101440.38
2022-08-27T15:06:46.881Z,101435.47
2022-08-27T15:09:46.682Z,101438.38
2022-08-27T15:12:44.078Z,101434.72
2022-08-27T15:15:41.505Z,101430.69
2022-08-27T15:18:39.057Z,101440.09
2022-08-27T15:21:37.391Z,101440.88
2022-08-27T15:24:40.882Z,101443.63
2022-08-27T15:27:39.165Z,101447.22
2022-08-27T15:30:37.958Z,101448.94
2022-08-27T15:33:34.888Z,101449.28
2022-08-27T15:36:31.940Z,101452.97
2022-08-27T15:39:28.761Z,101456.66
2022-08-27T15:42:28.985Z,101452.75
2022-08-27T15:45:27.503Z,101455.66
2022-08-27T15:48:25.234Z,101447.38
2022-08-27T15:51:30.248Z,101448.19
2022-08-27T15:54:28.057Z,101451.38
2022-08-27T15:57:24.974Z,101456.94
2022-08-27T16:00:22.300Z,101464.44
2022-08-27T16:03:19.959Z,101449.69
2022-08-27T16:06:26.729Z,101453.00
2022-08-27T16:09:24.397Z,101448.91
2022-08-27T16:12:27.107Z,101452.59
2022-08-27T16:15:25.164Z,101452.06
2022-08-27T16:18:28.716Z,101455.75
2022-08-27T16:21:26.099Z,101464.63
2022-08-27T16:24:23.478Z,101461.41
2022-08-27T16:27:20.927Z,101468.81
2022-08-27T16:30:20.067Z,101472.78
2022-08-27T16:33:23.435Z,101467.91
2022-08-27T16:36:21.239Z,101461.56
2022-08-27T16:39:18.631Z,101460.72
2022-08-27T16:42:15.870Z,101470.63
2022-08-27T16:45:14.368Z,101463.97
2022-08-27T16:48:30.880Z,101464.38
2022-08-27T16:51:32.638Z,101462.53
2022-08-27T16:54:30.583Z,101465.00
2022-08-27T16:57:27.836Z,101464.94
2022-08-27T17:00:24.629Z,101469.50
2022-08-27T17:03:22.451Z,101460.09
2022-08-27T17:06:21.068Z,101473.81
2022-08-27T17:09:19.903Z,101480.03
2022-08-27T17:12:19.149Z,101473.47
2022-08-27T17:15:17.254Z,101473.63
2022-08-27T17:18:15.218Z,101479.09
2022-08-27T17:21:13.167Z,101481.91
2022-08-27T17:24:12.571Z,101488.00
2022-08-27T17:27:10.056Z,101486.81
2022-08-27T17:30:08.571Z,101499.09
2022-08-27T17:33:06.869Z,101483.16
2022-08-27T17:36:05.275Z,101489.31
2022-08-27T17:39:03.944Z,101497.94
2022-08-27T17:42:00.918Z,101499.22
2022-08-27T17:44:59.251Z,101506.22
2022-08-27T17:47:56.734Z,101513.59
2022-08-27T17:50:54.131Z,101507.44
2022-08-27T17:53:58.455Z,101518.88
2022-08-27T17:56:59.179Z,101514.84
2022-08-27T17:59:55.941Z,101509.16
2022-08-27T18:02:53.738Z,101517.38
2022-08-27T18:05:51.098Z,101530.91
2022-08-27T18:08:48.175Z,101532.13
2022-08-27T18:11:46.402Z,101542.78
2022-08-27T18:14:49.598Z,101540.34
2022-08-27T18:17:47.096Z,101554.25
2022-08-27T18:20:44.700Z,101558.34
2022-08-27T18:23:42.878Z,101559.56
2022-08-27T18:26:39.959Z,101556.69
2022-08-27T18:29:36.897Z,101556.25
2022-08-27T18:32:33.755Z,101563.94
2022-08-27T18:35:32.322Z,101569.56
2022-08-27T18:38:29.705Z,101589.25
2022-08-27T18:41:27.123Z,101593.53
2022-08-27T18:44:24.677Z,101598.50
2022-08-27T18:47:22.111Z,101605.94
2022-08-27T18:50:19.433Z,101597.28
2022-08-27T18:53:18.150Z,101609.19
2022-08-27T18:56:16.707Z,101614.56
2022-08-27T18:59:14.026Z,101616.19
2022-08-27T19:02:14.810Z,101621.13
2022-08-27T19:05:13.055Z,101619.94
2022-08-27T19:08:10.178Z,101624.84
2022-08-27T19:11:07.974Z,101623.97
2022-08-27T19:14:05.270Z,101630.16
2022-08-27T19:17:03.312Z,101627.25
2022-08-27T19:20:01.554Z,101638.38
2022-08-27T19:22:59.691Z,101637.97
2022-08-27T19:25:57.571Z,101639.63
2022-08-27T19:28:54.665Z,101634.28
2022-08-27T19:31:52.248Z,101633.00
2022-08-27T19:34:50.353Z,101632.22
2022-08-27T19:37:53.220Z,101633.81
2022-08-27T19:40:51.229Z,101634.22
2022-08-27T19:43:48.292Z,101634.66
2022-08-27T19:46:47.332Z,101646.56
2022-08-27T19:49:49.866Z,101644.13
2022-08-27T19:52:48.145Z,101642.50
2022-08-27T19:55:46.124Z,101640.44
2022-08-27T19:58:43.095Z,101644.50
2022-08-27T20:01:40.273Z,101628.03
2022-08-27T20:04:55.908Z,101639.50
2022-08-27T20:07:53.035Z,101640.78
2022-08-27T20:10:50.223Z,101643.69
2022-08-27T20:13:50.457Z,101646.94
2022-08-27T20:16:48.432Z,101634.66
2022-08-27T20:19:46.201Z,101641.56
2022-08-27T20:22:47.823Z,101651.38
2022-08-27T20:25:45.438Z,101649.75
2022-08-27T20:28:43.261Z,101638.72
2022-08-27T20:31:41.291Z,101637.91
2022-08-27T20:34:38.870Z,101642.00
2022-08-27T20:37:40.010Z,101653.50
2022-08-27T20:40:38.835Z,101651.91
2022-08-27T20:43:36.338Z,101651.88
2022-08-27T20:46:34.592Z,101649.03
2022-08-27T20:49:32.332Z,101651.06
2022-08-27T20:52:30.246Z,101661.69
2022-08-27T20:55:27.064Z,101663.78
2022-08-27T20:58:43.262Z,101663.78
2022-08-27T21:01:40.225Z,101664.16
2022-08-27T21:04:42.005Z,101665.31
2022-08-27T21:07:39.020Z,101658.28
2022-08-27T21:10:36.059Z,101652.00
2022-08-27T21:13:32.792Z,101658.00
2022-08-27T21:16:29.973Z,101657.16
2022-08-27T21:19:26.922Z,101651.75
2022-08-27T21:22:24.312Z,101651.97
2022-08-27T21:25:24.547Z,101651.56
2022-08-27T21:28:22.022Z,101670.56
2022-08-27T21:31:19.294Z,101666.53
2022-08-27T21:34:16.045Z,101674.47
2022-08-27T21:37:14.050Z,101676.97
2022-08-27T21:40:11.451Z,101677.84
2022-08-27T21:43:08.855Z,101683.94
2022-08-27T21:46:06.132Z,101669.09
2022-08-27T21:49:02.938Z,101669.91
2022-08-27T21:52:03.334Z,101672.78
2022-08-27T21:54:59.989Z,101674.44
2022-08-27T21:57:56.920Z,101679.44
2022-08-27T22:00:54.045Z,101676.53
2022-08-27T22:03:51.797Z,101676.53
2022-08-27T22:06:49.049Z,101672.00
2022-08-27T22:09:52.207Z,101664.09
2022-08-27T22:12:49.032Z,101679.72
2022-08-27T22:15:46.542Z,101680.53
2022-08-27T22:18:44.497Z,101675.97
2022-08-27T22:21:42.235Z,101685.06
2022-08-27T22:24:39.054Z,101688.84
2022-08-27T22:27:36.177Z,101698.25
2022-08-27T22:30:32.760Z,101691.69
2022-08-27T22:33:30.201Z,101686.72
2022-08-27T22:36:27.192Z,101685.41
2022-08-27T22:39:24.216Z,101687.84
2022-08-27T22:42:22.005Z,101683.31
2022-08-27T22:45:19.364Z,101678.78
2022-08-27T22:48:15.986Z,101682.41
2022-08-27T22:51:13.309Z,101689.84
2022-08-27T22:54:10.222Z,101689.84
2022-08-27T22:57:06.897Z,101674.88
2022-08-27T23:00:11.763Z,101671.59
2022-08-27T23:03:10.244Z,101694.28
2022-08-27T23:06:07.077Z,101693.28
2022-08-27T23:09:04.418Z,101691.72
2022-08-27T23:12:01.407Z,101693.09
2022-08-27T23:14:59.151Z,101699.25
2022-08-27T23:17:56.759Z,101693.94
2022-08-27T23:20:53.941Z,101687.31
2022-08-27T23:23:50.932Z,101681.13
2022-08-27T23:27:06.564Z,101673.59
2022-08-27T23:30:04.777Z,101681.75
2022-08-27T23:33:02.144Z,101685.56
2022-08-27T23:35:59.002Z,101685.19
2022-08-27T23:38:58.273Z,101684.84
2022-08-27T23:41:55.480Z,101677.75
2022-08-27T23:44:53.189Z,101683.09
2022-08-27T23:47:50.238Z,101681.50
2022-08-27T23:50:47.222Z,101670.03
2022-08-27T23:53:44.249Z,101679.00
2022-08-27T23:56:41.061Z,101672.25
2022-08-27T23:59:37.933Z,101667.38
